Gulkana Airport Gulkana US
ICAO: PAGK
IATA:
Category: Medium
Scheduled Services:

Elevation: 1586 ft
TransAlt. 18000 ft.

Airport Communications:
ASOS:134.85
ANCHORAGE CNTR:119.5
CTAF:122.9
KENAI RDO:122.2
TWEB:115.6

PAGK Zoom In..

If you have problems with the map follow the link
https://www.worldairports.se/pages/airport.php?
ICAO=PAGK

Runways:

(A) RW 15 length 5001 ft width 100 ft
---- / hdg 148

(B) RW 33 length 5001 ft width 100 ft
---- / hdg 328

Location; PAGK
Day. 27 / Time. 05.53 Zulu
* Altimeter: 29.41
* Temperature: -26° c. 14.8°f.
* Wind from: 000° Speed 00 kn.
Dewpoint: -28° c.
Visibility: 10 Statute Miles.
Clouds: Clear (automated report).

PAGK 270553Z AUTO 00000KT 10SM CLR M26/M28 A2941 RMK AO2 SNE10 SLP033 P0000 60000 I1001 I6001 T12561278 11211 21256 51006 TSNO


Wind - Calm.

 
 
jpsmedia worldairports.se 2020   terms of use